createdAt,value
2018-08-11T00:01:49.547Z,101536.15
2018-08-11T00:04:18.475Z,101529.33
2018-08-11T00:06:47.332Z,101533.44
2018-08-11T00:09:16.229Z,101538.87
2018-08-11T00:11:45.173Z,101542.95
2018-08-11T00:14:14.100Z,101554.17
2018-08-11T00:16:43.043Z,101565.47
2018-08-11T00:19:12.053Z,101568.25
2018-08-11T00:21:40.956Z,101566.14
2018-08-11T00:24:09.875Z,101572.66
2018-08-11T00:26:38.976Z,101580.56
2018-08-11T00:29:07.924Z,101570.70
2018-08-11T00:31:38.849Z,101574.12
2018-08-11T00:34:07.719Z,101586.44
2018-08-11T00:36:36.629Z,101597.09
2018-08-11T00:39:08.234Z,101600.59
2018-08-11T00:41:37.164Z,101605.83
2018-08-11T00:44:06.269Z,101627.16
2018-08-11T00:46:35.186Z,101644.78
2018-08-11T00:49:04.211Z,101650.07
2018-08-11T00:51:33.128Z,101658.77
2018-08-11T00:54:02.039Z,101654.58
2018-08-11T00:56:30.936Z,101653.13
2018-08-11T00:58:59.830Z,101651.21
2018-08-11T01:01:28.816Z,101642.88
2018-08-11T01:03:57.736Z,101649.46
2018-08-11T01:06:26.724Z,101643.89
2018-08-11T01:08:55.615Z,101649.64
2018-08-11T01:11:24.530Z,101666.29
2018-08-11T01:13:53.461Z,101678.56
2018-08-11T01:16:22.368Z,101679.45
2018-08-11T01:18:52.266Z,101676.37
2018-08-11T01:21:21.166Z,101666.84
2018-08-11T01:23:50.059Z,101648.94
2018-08-11T01:26:18.955Z,101633.16
2018-08-11T01:28:47.849Z,101624.13
2018-08-11T01:31:16.732Z,101630.67
2018-08-11T01:33:46.718Z,101614.16
2018-08-11T01:36:15.564Z,101609.47
2018-08-11T01:38:44.476Z,101630.06
2018-08-11T01:41:13.345Z,101632.08
2018-08-11T01:43:42.295Z,101637.86
2018-08-11T01:46:11.239Z,101633.72
2018-08-11T01:48:40.156Z,101615.77
2018-08-11T01:51:09.032Z,101615.47
2018-08-11T01:53:37.882Z,101614.30
2018-08-11T01:56:06.772Z,101614.70
2018-08-11T01:58:36.699Z,101630.49
2018-08-11T02:01:05.645Z,101630.05
2018-08-11T02:03:34.527Z,101628.59
2018-08-11T02:06:03.425Z,101622.85
2018-08-11T02:08:32.377Z,101623.97
2018-08-11T02:11:01.368Z,101614.39
2018-08-11T02:13:30.301Z,101618.36
2018-08-11T02:15:59.227Z,101631.12
2018-08-11T02:18:29.157Z,101645.62
2018-08-11T02:20:58.074Z,101634.15
2018-08-11T02:23:26.999Z,101628.55
2018-08-11T02:25:55.912Z,101630.25
2018-08-11T02:28:24.832Z,101634.42
2018-08-11T02:30:53.754Z,101634.23
2018-08-11T02:33:22.681Z,101642.48
2018-08-11T02:35:51.565Z,101637.98
2018-08-11T02:38:20.435Z,101639.22
2018-08-11T02:40:49.337Z,101634.89
2018-08-11T02:43:18.203Z,101633.28
2018-08-11T02:45:48.203Z,101630.97
2018-08-11T02:48:17.063Z,101634.64
2018-08-11T02:50:45.939Z,101633.94
2018-08-11T02:53:14.839Z,101640.42
2018-08-11T02:55:43.721Z,101643.08
2018-08-11T02:58:12.603Z,101647.84
2018-08-11T03:00:41.454Z,101648.38
2018-08-11T03:03:10.321Z,101642.31
2018-08-11T03:05:39.233Z,101649.30
2018-08-11T03:08:08.155Z,101649.02
2018-08-11T03:10:37.117Z,101645.90
2018-08-11T03:13:06.017Z,101651.24
2018-08-11T03:15:34.901Z,101657.77
2018-08-11T03:18:04.275Z,101656.27
2018-08-11T03:20:33.181Z,101662.36
2018-08-11T03:23:02.124Z,101661.63
2018-08-11T03:25:31.024Z,101659.52
2018-08-11T03:27:59.966Z,101666.88
2018-08-11T03:30:28.875Z,101665.43
2018-08-11T03:32:57.775Z,101671.81
2018-08-11T03:35:26.675Z,101669.38
2018-08-11T03:37:55.661Z,101673.59
2018-08-11T03:40:24.590Z,101676.49
2018-08-11T03:42:53.480Z,101676.11
2018-08-11T03:45:22.365Z,101673.97
2018-08-11T03:47:51.216Z,101684.99
2018-08-11T03:50:20.117Z,101683.45
2018-08-11T03:52:49.056Z,101689.59
2018-08-11T03:55:17.898Z,101695.98
2018-08-11T03:57:46.803Z,101692.31
2018-08-11T04:00:15.658Z,101698.06
2018-08-11T04:02:44.605Z,101696.52
2018-08-11T04:05:13.457Z,101698.29
2018-08-11T04:07:42.357Z,101697.22
2018-08-11T04:10:11.212Z,101698.53
2018-08-11T04:12:40.160Z,101698.45
2018-08-11T04:15:09.072Z,101700.41
2018-08-11T04:17:41.658Z,101702.80
2018-08-11T04:20:11.520Z,101697.54
2018-08-11T04:22:40.488Z,101705.21
2018-08-11T04:25:09.700Z,101711.53
2018-08-11T04:27:38.871Z,101707.93
2018-08-11T04:30:09.266Z,101718.67
2018-08-11T04:32:40.501Z,101712.82
2018-08-11T04:35:09.433Z,101712.84
2018-08-11T04:37:38.337Z,101716.25
2018-08-11T04:40:07.220Z,101720.95
2018-08-11T04:42:36.160Z,101719.37
2018-08-11T04:45:05.675Z,101719.16
2018-08-11T04:47:34.559Z,101725.11
2018-08-11T04:50:03.545Z,101729.11
2018-08-11T04:52:32.453Z,101726.42
2018-08-11T04:55:01.344Z,101729.72
2018-08-11T04:57:30.228Z,101730.61
2018-08-11T04:59:59.122Z,101734.91
2018-08-11T05:02:28.001Z,101739.94
2018-08-11T05:04:56.895Z,101743.41
2018-08-11T05:07:25.821Z,101748.25
2018-08-11T05:09:54.726Z,101745.32
2018-08-11T05:12:23.627Z,101757.69
2018-08-11T05:14:52.493Z,101760.95
2018-08-11T05:17:21.366Z,101762.85
2018-08-11T05:19:50.445Z,101766.08
2018-08-11T05:22:19.331Z,101771.27
2018-08-11T05:24:48.239Z,101764.84
2018-08-11T05:27:17.128Z,101767.50
2018-08-11T05:29:46.137Z,101767.35
2018-08-11T05:32:15.053Z,101775.20
2018-08-11T05:34:43.894Z,101775.56
2018-08-11T05:37:12.914Z,101770.70
2018-08-11T05:39:41.797Z,101784.22
2018-08-11T05:42:10.739Z,101778.23
2018-08-11T05:44:39.617Z,101786.02
2018-08-11T05:47:08.537Z,101774.36
2018-08-11T05:49:37.408Z,101778.25
2018-08-11T05:52:07.471Z,101781.63
2018-08-11T05:54:36.346Z,101784.50
2018-08-11T05:57:05.237Z,101785.70
2018-08-11T05:59:34.111Z,101790.63
2018-08-11T06:02:03.024Z,101798.08
2018-08-11T06:04:31.901Z,101793.85
2018-08-11T06:07:00.784Z,101797.92
2018-08-11T06:09:29.690Z,101807.42
2018-08-11T06:11:58.621Z,101809.48
2018-08-11T06:14:28.552Z,101815.02
2018-08-11T06:16:57.441Z,101814.77
2018-08-11T06:19:26.376Z,101818.55
2018-08-11T06:21:55.587Z,101823.17
2018-08-11T06:24:24.540Z,101824.52
2018-08-11T06:26:53.438Z,101824.01
2018-08-11T06:29:22.328Z,101828.96
2018-08-11T06:31:51.370Z,101828.30
2018-08-11T06:34:20.141Z,101825.11
2018-08-11T06:36:56.746Z,101831.95
2018-08-11T06:39:25.755Z,101833.67
2018-08-11T06:41:54.699Z,101830.92
2018-08-11T06:44:23.578Z,101833.98
2018-08-11T06:46:52.463Z,101835.41
2018-08-11T06:49:21.358Z,101835.10
2018-08-11T06:51:50.306Z,101842.06
2018-08-11T06:54:19.254Z,101843.91
2018-08-11T06:56:48.109Z,101848.47
2018-08-11T06:59:17.010Z,101841.86
2018-08-11T07:01:45.910Z,101845.50
2018-08-11T07:04:14.763Z,101847.77
2018-08-11T07:06:43.735Z,101857.80
2018-08-11T07:09:12.507Z,101854.41
2018-08-11T07:11:41.392Z,101852.48
2018-08-11T07:14:10.312Z,101858.64
2018-08-11T07:16:39.210Z,101854.61
2018-08-11T07:19:08.227Z,101853.39
2018-08-11T07:21:37.128Z,101859.70
2018-08-11T07:24:06.028Z,101862.42
2018-08-11T07:26:34.956Z,101863.34
2018-08-11T07:29:03.852Z,101866.89
2018-08-11T07:31:32.743Z,101868.50
2018-08-11T07:34:01.689Z,101868.66
2018-08-11T07:36:30.892Z,101871.69
2018-08-11T07:38:59.807Z,101876.47
2018-08-11T07:41:28.672Z,101872.84
2018-08-11T07:43:57.573Z,101876.78
2018-08-11T07:46:26.437Z,101874.16
2018-08-11T07:48:55.419Z,101877.20
2018-08-11T07:51:24.277Z,101885.06
2018-08-11T07:53:53.185Z,101884.91
2018-08-11T07:56:22.084Z,101885.75
2018-08-11T07:58:50.982Z,101885.46
2018-08-11T08:01:20.024Z,101882.39
2018-08-11T08:03:48.931Z,101890.06
2018-08-11T08:06:18.144Z,101887.87
2018-08-11T08:08:47.061Z,101893.26
2018-08-11T08:11:16.307Z,101897.73
2018-08-11T08:13:45.305Z,101899.27
2018-08-11T08:16:14.215Z,101894.70
2018-08-11T08:18:44.136Z,101901.11
2018-08-11T08:21:13.214Z,101894.00
2018-08-11T08:23:42.119Z,101900.19
2018-08-11T08:26:11.072Z,101892.09
2018-08-11T08:28:39.883Z,101898.95
2018-08-11T08:31:08.909Z,101893.79
2018-08-11T08:33:37.808Z,101898.48
2018-08-11T08:36:06.711Z,101887.88
2018-08-11T08:38:35.582Z,101890.55
2018-08-11T08:41:04.490Z,101892.49
2018-08-11T08:43:33.391Z,101885.12
2018-08-11T08:46:02.287Z,101884.41
2018-08-11T08:48:31.634Z,101889.50
2018-08-11T08:51:00.563Z,101891.64
2018-08-11T08:53:29.478Z,101881.80
2018-08-11T08:55:58.328Z,101891.39
2018-08-11T08:58:27.229Z,101888.66
2018-08-11T09:00:56.154Z,101891.90
2018-08-11T09:03:25.111Z,101888.36
2018-08-11T09:05:54.032Z,101890.66
2018-08-11T09:08:22.937Z,101885.86
2018-08-11T09:10:51.900Z,101889.64
2018-08-11T09:13:20.796Z,101889.05
2018-08-11T09:15:49.696Z,101889.64
2018-08-11T09:18:18.667Z,101888.31
2018-08-11T09:20:47.559Z,101891.16
2018-08-11T09:23:16.471Z,101889.42
2018-08-11T09:25:45.349Z,101895.89
2018-08-11T09:28:14.242Z,101891.73
2018-08-11T09:30:43.175Z,101900.80
2018-08-11T09:33:12.125Z,101893.52
2018-08-11T09:35:40.998Z,101896.06
2018-08-11T09:38:09.926Z,101899.48
2018-08-11T09:40:38.826Z,101903.88
2018-08-11T09:43:07.769Z,101896.45
2018-08-11T09:45:36.838Z,101902.55
2018-08-11T09:48:05.747Z,101901.86
2018-08-11T09:50:34.656Z,101898.24
2018-08-11T09:53:03.949Z,101892.75
2018-08-11T09:55:32.835Z,101896.86
2018-08-11T09:58:01.763Z,101894.87
2018-08-11T10:00:35.913Z,101894.73
2018-08-11T10:03:04.816Z,101890.31
2018-08-11T10:05:33.703Z,101893.26
2018-08-11T10:08:02.593Z,101897.28
2018-08-11T10:10:31.615Z,101885.59
2018-08-11T10:13:00.427Z,101883.59
2018-08-11T10:15:29.681Z,101881.33
2018-08-11T10:17:58.522Z,101887.58
2018-08-11T10:20:27.520Z,101884.02
2018-08-11T10:22:56.414Z,101882.91
2018-08-11T10:25:25.395Z,101887.84
2018-08-11T10:27:54.281Z,101894.89
2018-08-11T10:30:23.223Z,101889.14
2018-08-11T10:32:52.109Z,101887.09
2018-08-11T10:35:21.048Z,101885.14
2018-08-11T10:37:49.956Z,101885.17
2018-08-11T10:40:18.950Z,101888.01
2018-08-11T10:42:47.816Z,101898.58
2018-08-11T10:45:16.731Z,101892.21
2018-08-11T10:47:45.643Z,101886.78
2018-08-11T10:50:14.563Z,101889.72
2018-08-11T10:52:44.548Z,101880.01
2018-08-11T10:55:13.451Z,101882.67
2018-08-11T10:57:42.295Z,101881.34
2018-08-11T11:00:11.177Z,101876.92
2018-08-11T11:02:40.382Z,101885.33
2018-08-11T11:05:09.950Z,101879.09
2018-08-11T11:07:38.970Z,101878.48
2018-08-11T11:10:08.176Z,101875.36
2018-08-11T11:12:37.389Z,101879.58
2018-08-11T11:15:06.689Z,101879.93
2018-08-11T11:17:35.584Z,101877.34
2018-08-11T11:20:05.760Z,101877.53
2018-08-11T11:22:34.665Z,101882.69
2018-08-11T11:25:03.607Z,101884.92
2018-08-11T11:27:32.515Z,101878.13
2018-08-11T11:30:01.493Z,101877.59
2018-08-11T11:32:30.375Z,101877.63
2018-08-11T11:34:59.246Z,101883.00
2018-08-11T11:37:28.222Z,101887.23
2018-08-11T11:39:57.305Z,101873.14
2018-08-11T11:42:26.201Z,101869.41
2018-08-11T11:44:55.104Z,101866.07
2018-08-11T11:47:23.972Z,101874.03
2018-08-11T11:49:52.818Z,101872.62
2018-08-11T11:52:21.690Z,101883.32
2018-08-11T11:54:50.571Z,101876.89
2018-08-11T11:57:19.521Z,101874.16
2018-08-11T11:59:48.434Z,101881.68
2018-08-11T12:02:17.295Z,101880.01
2018-08-11T12:04:46.199Z,101875.65
2018-08-11T12:07:15.084Z,101877.97
2018-08-11T12:09:46.117Z,101876.24
2018-08-11T12:12:15.086Z,101871.45
2018-08-11T12:14:44.026Z,101873.41
2018-08-11T12:17:13.131Z,101865.38
2018-08-11T12:19:42.045Z,101868.64
2018-08-11T12:22:10.973Z,101861.50
2018-08-11T12:24:39.854Z,101857.84
2018-08-11T12:27:08.818Z,101859.05
2018-08-11T12:29:37.688Z,101867.44
2018-08-11T12:32:06.585Z,101852.65
2018-08-11T12:34:35.498Z,101856.63
2018-08-11T12:37:04.403Z,101870.37
2018-08-11T12:39:33.637Z,101868.73
2018-08-11T12:42:02.504Z,101867.66
2018-08-11T12:44:31.394Z,101867.17
2018-08-11T12:47:00.306Z,101862.50
2018-08-11T12:49:29.238Z,101857.30
2018-08-11T12:51:58.276Z,101860.35
2018-08-11T12:54:27.154Z,101854.86
2018-08-11T12:56:56.057Z,101857.05
2018-08-11T12:59:24.960Z,101853.77
2018-08-11T13:01:53.843Z,101862.23
2018-08-11T13:04:22.718Z,101848.57
2018-08-11T13:06:51.648Z,101849.94
2018-08-11T13:09:20.577Z,101841.42
2018-08-11T13:11:49.468Z,101841.95
2018-08-11T13:14:18.361Z,101844.44
2018-08-11T13:16:47.266Z,101845.47
2018-08-11T13:19:16.160Z,101841.66
2018-08-11T13:21:45.301Z,101844.16
2018-08-11T13:24:14.424Z,101842.80
2018-08-11T13:26:43.433Z,101854.05
2018-08-11T13:29:12.359Z,101840.34
2018-08-11T13:31:41.342Z,101839.76
2018-08-11T13:34:10.252Z,101836.22
2018-08-11T13:36:39.204Z,101835.10
2018-08-11T13:39:09.399Z,101828.23
2018-08-11T13:41:42.338Z,101834.28
2018-08-11T13:44:11.267Z,101830.45
2018-08-11T13:46:40.214Z,101831.83
2018-08-11T13:49:09.750Z,101834.55
2018-08-11T13:51:39.084Z,101827.87
2018-08-11T13:54:08.126Z,101825.77
2018-08-11T13:56:37.676Z,101813.43
2018-08-11T13:59:06.725Z,101823.59
2018-08-11T14:01:35.896Z,101819.48
2018-08-11T14:04:05.799Z,101818.39
2018-08-11T14:06:34.855Z,101814.00
2018-08-11T14:09:05.029Z,101814.78
2018-08-11T14:11:33.941Z,101813.69
2018-08-11T14:14:02.933Z,101812.28
2018-08-11T14:16:31.878Z,101808.48
2018-08-11T14:19:00.836Z,101814.80
2018-08-11T14:21:29.728Z,101815.36
2018-08-11T14:23:58.643Z,101809.87
2018-08-11T14:26:27.656Z,101817.02
2018-08-11T14:28:56.604Z,101810.95
2018-08-11T14:31:25.592Z,101805.20
2018-08-11T14:33:54.489Z,101818.36
2018-08-11T14:36:23.361Z,101812.28
2018-08-11T14:38:52.301Z,101815.36
2018-08-11T14:41:21.183Z,101808.80
2018-08-11T14:43:50.138Z,101819.48
2018-08-11T14:46:19.030Z,101816.16
2018-08-11T14:48:47.930Z,101815.88
2018-08-11T14:51:16.870Z,101816.17
2018-08-11T14:53:45.797Z,101804.67
2018-08-11T14:56:14.747Z,101809.04
2018-08-11T14:58:43.592Z,101810.69
2018-08-11T15:01:12.590Z,101807.33
2018-08-11T15:03:41.503Z,101809.87
2018-08-11T15:06:10.397Z,101804.39
2018-08-11T15:08:39.298Z,101806.58
2018-08-11T15:11:08.182Z,101807.92
2018-08-11T15:13:37.454Z,101809.31
2018-08-11T15:16:06.429Z,101811.23
2018-08-11T15:18:35.331Z,101805.20
2018-08-11T15:21:04.379Z,101803.28
2018-08-11T15:23:33.432Z,101802.18
2018-08-11T15:26:02.382Z,101794.52
2018-08-11T15:28:31.337Z,101790.93
2018-08-11T15:31:00.220Z,101792.86
2018-08-11T15:35:57.257Z,101783.82
2018-08-11T15:38:26.489Z,101784.89
2018-08-11T15:41:01.941Z,101785.44
2018-08-11T15:46:23.842Z,101801.91
2018-08-11T15:48:52.919Z,101798.91
2018-08-11T15:51:22.119Z,101796.16
2018-08-11T15:53:55.295Z,101800.80
2018-08-11T15:56:24.339Z,101796.45
2018-08-11T15:58:53.324Z,101797.81
2018-08-11T16:01:22.305Z,101796.69
2018-08-11T16:03:51.356Z,101785.48
2018-08-11T16:06:21.181Z,101784.36
2018-08-11T16:08:50.515Z,101786.00
2018-08-11T16:11:19.750Z,101791.49
2018-08-11T16:13:49.223Z,101789.84
2018-08-11T16:16:18.451Z,101790.93
2018-08-11T16:18:47.812Z,101786.82
2018-08-11T16:21:17.933Z,101790.41
2018-08-11T16:23:47.170Z,101783.83
2018-08-11T16:26:16.097Z,101780.24
2018-08-11T16:28:44.969Z,101783.55
2018-08-11T16:31:13.877Z,101786.01
2018-08-11T16:33:42.787Z,101786.57
2018-08-11T16:36:11.710Z,101790.89
2018-08-11T16:38:40.609Z,101792.58
2018-08-11T16:41:09.525Z,101790.92
2018-08-11T16:43:38.608Z,101789.31
2018-08-11T16:46:07.472Z,101790.64
2018-08-11T16:48:36.357Z,101785.20
2018-08-11T16:51:05.618Z,101787.38
2018-08-11T16:53:34.508Z,101789.56
2018-08-11T16:56:03.486Z,101792.05
2018-08-11T16:58:32.365Z,101790.13
2018-08-11T17:01:01.258Z,101787.34
2018-08-11T17:03:30.361Z,101790.88
2018-08-11T17:05:59.290Z,101784.88
2018-08-11T17:08:28.200Z,101783.50
2018-08-11T17:10:57.098Z,101779.91
2018-08-11T17:13:26.024Z,101777.22
2018-08-11T17:15:54.979Z,101776.69
2018-08-11T17:18:23.885Z,101774.23
2018-08-11T17:20:52.767Z,101772.53
2018-08-11T17:23:21.665Z,101777.50
2018-08-11T17:25:50.549Z,101773.35
2018-08-11T17:28:20.516Z,101773.90
2018-08-11T17:30:49.405Z,101768.95
2018-08-11T17:33:18.320Z,101770.59
2018-08-11T17:35:47.233Z,101771.67
2018-08-11T17:38:16.083Z,101773.32
2018-08-11T17:40:45.001Z,101767.84
2018-08-11T17:43:13.897Z,101768.13
2018-08-11T17:45:42.814Z,101764.57
2018-08-11T17:48:11.708Z,101767.31
2018-08-11T17:50:40.616Z,101767.03
2018-08-11T17:53:09.510Z,101762.63
2018-08-11T17:55:38.488Z,101761.82
2018-08-11T17:58:07.369Z,101766.14
2018-08-11T18:00:36.257Z,101763.17
2018-08-11T18:03:05.194Z,101765.05
2018-08-11T18:05:34.078Z,101763.12
2018-08-11T18:08:02.967Z,101765.36
2018-08-11T18:10:31.975Z,101767.23
2018-08-11T18:13:00.905Z,101763.68
2018-08-11T18:15:29.813Z,101760.13
2018-08-11T18:17:58.693Z,101763.70
2018-08-11T18:20:28.616Z,101759.00
2018-08-11T18:22:57.516Z,101754.91
2018-08-11T18:25:26.429Z,101755.19
2018-08-11T18:27:55.327Z,101757.92
2018-08-11T18:30:24.230Z,101760.54
2018-08-11T18:32:53.220Z,101758.16
2018-08-11T18:35:22.128Z,101753.47
2018-08-11T18:37:51.013Z,101760.55
2018-08-11T18:40:19.911Z,101755.13
2018-08-11T18:42:48.859Z,101757.88
2018-08-11T18:45:17.802Z,101760.88
2018-08-11T18:47:46.680Z,101757.34
2018-08-11T18:50:15.552Z,101755.63
2018-08-11T18:52:44.516Z,101758.36
2018-08-11T18:55:13.444Z,101753.70
2018-08-11T18:57:42.329Z,101755.03
2018-08-11T19:00:15.046Z,101758.63
2018-08-11T19:02:44.455Z,101761.61
2018-08-11T19:05:13.355Z,101758.03
2018-08-11T19:07:42.396Z,101757.47
2018-08-11T19:10:11.661Z,101759.69
2018-08-11T19:12:40.658Z,101760.20
2018-08-11T19:15:12.284Z,101762.92
2018-08-11T19:17:41.245Z,101764.48
2018-08-11T19:20:11.898Z,101760.26
2018-08-11T19:22:40.845Z,101758.63
2018-08-11T19:25:10.999Z,101762.11
2018-08-11T19:27:39.887Z,101766.47
2018-08-11T19:30:09.835Z,101760.37
2018-08-11T19:32:39.241Z,101761.94
2018-08-11T19:35:08.351Z,101765.67
2018-08-11T19:37:37.785Z,101759.05
2018-08-11T19:40:07.581Z,101770.44
2018-08-11T19:42:36.479Z,101765.48
2018-08-11T19:45:07.480Z,101774.09
2018-08-11T19:47:37.456Z,101763.02
2018-08-11T19:50:07.241Z,101768.39
2018-08-11T19:52:36.159Z,101770.31
2018-08-11T19:55:05.529Z,101774.25
2018-08-11T19:57:34.489Z,101771.90
2018-08-11T20:00:03.383Z,101766.64
2018-08-11T20:02:32.313Z,101772.19
2018-08-11T20:05:01.257Z,101770.42
2018-08-11T20:07:30.149Z,101771.14
2018-08-11T20:09:59.125Z,101766.66
2018-08-11T20:12:28.011Z,101770.27
2018-08-11T20:14:56.934Z,101761.11
2018-08-11T20:17:25.835Z,101759.69
2018-08-11T20:19:54.757Z,101755.84
2018-08-11T20:22:23.670Z,101759.62
2018-08-11T20:24:52.645Z,101764.09
2018-08-11T20:27:21.526Z,101757.86
2018-08-11T20:29:50.416Z,101755.81
2018-08-11T20:32:19.288Z,101757.44
2018-08-11T20:34:48.192Z,101760.20
2018-08-11T20:37:17.087Z,101758.03
2018-08-11T20:39:45.965Z,101755.31
2018-08-11T20:42:14.883Z,101758.70
2018-08-11T20:44:43.767Z,101758.11
2018-08-11T20:47:12.655Z,101756.30
2018-08-11T20:49:41.554Z,101754.91
2018-08-11T20:52:10.479Z,101754.94
2018-08-11T20:54:39.429Z,101755.86
2018-08-11T20:57:08.515Z,101756.81
2018-08-11T20:59:37.405Z,101754.94
2018-08-11T21:02:06.625Z,101750.69
2018-08-11T21:04:35.517Z,101754.22
2018-08-11T21:07:04.519Z,101755.55
2018-08-11T21:09:33.411Z,101748.11
2018-08-11T21:12:02.320Z,101749.88
2018-08-11T21:14:31.256Z,101747.17
2018-08-11T21:17:00.248Z,101748.58
2018-08-11T21:19:29.133Z,101748.20
2018-08-11T21:21:57.989Z,101749.89
2018-08-11T21:24:26.903Z,101749.39
2018-08-11T21:26:55.811Z,101749.52
2018-08-11T21:29:24.713Z,101749.69
2018-08-11T21:31:53.769Z,101750.63
2018-08-11T21:34:22.672Z,101744.80
2018-08-11T21:36:51.605Z,101747.09
2018-08-11T21:39:20.496Z,101746.21
2018-08-11T21:41:49.412Z,101744.25
2018-08-11T21:44:18.276Z,101745.18
2018-08-11T21:46:47.135Z,101739.77
2018-08-11T21:49:15.995Z,101739.34
2018-08-11T21:51:44.881Z,101740.41
2018-08-11T21:54:13.807Z,101742.07
2018-08-11T21:56:42.845Z,101739.55
2018-08-11T21:59:11.592Z,101741.94
2018-08-11T22:01:40.509Z,101734.20
2018-08-11T22:04:09.367Z,101736.68
2018-08-11T22:06:38.353Z,101737.88
2018-08-11T22:09:11.073Z,101739.95
2018-08-11T22:11:39.953Z,101736.37
2018-08-11T22:14:09.507Z,101742.03
2018-08-11T22:16:38.437Z,101746.02
2018-08-11T22:19:07.385Z,101740.67
2018-08-11T22:21:36.340Z,101735.20
2018-08-11T22:24:05.250Z,101734.73
2018-08-11T22:26:34.115Z,101733.47
2018-08-11T22:29:04.085Z,101734.19
2018-08-11T22:31:32.984Z,101730.91
2018-08-11T22:34:02.016Z,101730.45
2018-08-11T22:36:31.359Z,101729.64
2018-08-11T22:39:00.670Z,101721.38
2018-08-11T22:41:29.690Z,101721.39
2018-08-11T22:43:58.597Z,101717.42
2018-08-11T22:46:27.517Z,101722.75
2018-08-11T22:48:56.379Z,101716.86
2018-08-11T22:51:25.367Z,101719.11
2018-08-11T22:53:54.258Z,101712.70
2018-08-11T22:56:23.173Z,101708.48
2018-08-11T22:58:52.066Z,101706.01
2018-08-11T23:01:20.954Z,101701.69
2018-08-11T23:03:49.834Z,101705.08
2018-08-11T23:06:18.788Z,101701.20
2018-08-11T23:08:47.706Z,101695.10
2018-08-11T23:11:16.588Z,101697.20
2018-08-11T23:13:46.589Z,101696.44
2018-08-11T23:16:15.515Z,101692.61
2018-08-11T23:18:44.440Z,101686.88
2018-08-11T23:21:13.348Z,101690.21
2018-08-11T23:23:42.271Z,101683.59
2018-08-11T23:26:11.237Z,101678.50
2018-08-11T23:28:40.101Z,101679.16
2018-08-11T23:31:08.988Z,101673.17
2018-08-11T23:33:37.871Z,101667.14
2018-08-11T23:36:06.777Z,101665.27
2018-08-11T23:38:35.685Z,101662.88
2018-08-11T23:41:04.607Z,101667.86
2018-08-11T23:43:33.484Z,101664.17
2018-08-11T23:46:02.365Z,101664.47
2018-08-11T23:48:31.280Z,101666.66
2018-08-11T23:51:00.164Z,101654.78
2018-08-11T23:53:29.092Z,101661.22
2018-08-11T23:55:58.013Z,101661.75
2018-08-11T23:58:26.979Z,101655.30
